Atlanta, Georgia
Traffic Map
Current Weather Conditions
Atlanta, Georgia
Few Clouds
Few Clouds
74°
Feels Like: 74°
Wind Chill: 74° Ceiling: Unl
Heat Index: 74° Visibility: 10mi
Dew Point: 65° Wind: 7mph
Humidity: 73% Direction: 60° (ENE)
Pressure: 30.04in Gusts: 0mph
Raw Report DataKATL 220452Z 06006KT 10SM FEW150 23/18 A3004 RMK AO2 SLP161 T02330183 403170206
Traffic Incident Summary
Active as of:
Severity:
Category:
InformationThere was an issue retrieving the traffic information for this location. Please try a different location or try again shortly.
Advertisements